sensor_id;sensor_type;location;lat;lon;timestamp;P1;durP1;ratioP1;P2;durP2;ratioP2
56455;SDS011;42354;53.218;6.564;2023-08-21T00:00:36;10.48;;;4.07;;
56455;SDS011;42354;53.218;6.564;2023-08-21T00:03:01;11.95;;;3.60;;
56455;SDS011;42354;53.218;6.564;2023-08-21T00:05:27;13.02;;;3.80;;
56455;SDS011;42354;53.218;6.564;2023-08-21T00:07:52;12.23;;;3.63;;
56455;SDS011;42354;53.218;6.564;2023-08-21T00:10:18;11.48;;;3.65;;
56455;SDS011;42354;53.218;6.564;2023-08-21T00:12:44;14.45;;;4.40;;
56455;SDS011;42354;53.218;6.564;2023-08-21T00:15:10;11.48;;;4.22;;
56455;SDS011;42354;53.218;6.564;2023-08-21T00:17:36;12.82;;;4.15;;
56455;SDS011;42354;53.218;6.564;2023-08-21T00:20:02;13.52;;;4.30;;
56455;SDS011;42354;53.218;6.564;2023-08-21T00:22:28;13.98;;;4.25;;
56455;SDS011;42354;53.218;6.564;2023-08-21T00:24:53;14.30;;;4.00;;
56455;SDS011;42354;53.218;6.564;2023-08-21T00:27:18;14.60;;;4.28;;
56455;SDS011;42354;53.218;6.564;2023-08-21T00:29:44;15.52;;;5.07;;
56455;SDS011;42354;53.218;6.564;2023-08-21T00:32:09;20.33;;;4.47;;
56455;SDS011;42354;53.218;6.564;2023-08-21T00:34:37;9.02;;;4.53;;
56455;SDS011;42354;53.218;6.564;2023-08-21T00:37:02;12.60;;;4.22;;
56455;SDS011;42354;53.218;6.564;2023-08-21T00:39:27;15.73;;;4.65;;
56455;SDS011;42354;53.218;6.564;2023-08-21T00:41:53;16.02;;;4.90;;
56455;SDS011;42354;53.218;6.564;2023-08-21T00:44:18;19.33;;;5.00;;
56455;SDS011;42354;53.218;6.564;2023-08-21T00:46:44;15.77;;;4.68;;
56455;SDS011;42354;53.218;6.564;2023-08-21T00:49:09;15.25;;;5.38;;
56455;SDS011;42354;53.218;6.564;2023-08-21T00:51:37;15.50;;;4.95;;
56455;SDS011;42354;53.218;6.564;2023-08-21T00:54:03;16.23;;;4.80;;
56455;SDS011;42354;53.218;6.564;2023-08-21T00:56:28;13.18;;;4.68;;
56455;SDS011;42354;53.218;6.564;2023-08-21T00:58:54;22.48;;;4.70;;
56455;SDS011;42354;53.218;6.564;2023-08-21T01:01:20;17.60;;;5.15;;
56455;SDS011;42354;53.218;6.564;2023-08-21T01:03:52;13.60;;;4.47;;
56455;SDS011;42354;53.218;6.564;2023-08-21T01:06:18;12.45;;;4.38;;
56455;SDS011;42354;53.218;6.564;2023-08-21T01:08:56;12.40;;;4.65;;
56455;SDS011;42354;53.218;6.564;2023-08-21T01:14:34;16.48;;;5.03;;
56455;SDS011;42354;53.218;6.564;2023-08-21T01:17:08;11.40;;;5.57;;
56455;SDS011;42354;53.218;6.564;2023-08-21T01:19:40;14.65;;;5.05;;
56455;SDS011;42354;53.218;6.564;2023-08-21T01:22:06;15.82;;;5.28;;
56455;SDS011;42354;53.218;6.564;2023-08-21T01:24:32;15.68;;;4.63;;
56455;SDS011;42354;53.218;6.564;2023-08-21T01:26:58;14.15;;;4.78;;
56455;SDS011;42354;53.218;6.564;2023-08-21T01:29:24;16.67;;;4.97;;
56455;SDS011;42354;53.218;6.564;2023-08-21T01:37:02;15.25;;;4.93;;
56455;SDS011;42354;53.218;6.564;2023-08-21T01:39:28;19.73;;;6.10;;
56455;SDS011;42354;53.218;6.564;2023-08-21T01:41:54;18.75;;;5.47;;
56455;SDS011;42354;53.218;6.564;2023-08-21T01:44:21;16.90;;;5.65;;
56455;SDS011;42354;53.218;6.564;2023-08-21T01:46:46;14.70;;;5.32;;
56455;SDS011;42354;53.218;6.564;2023-08-21T01:49:12;18.75;;;5.25;;
56455;SDS011;42354;53.218;6.564;2023-08-21T01:51:37;13.52;;;5.13;;
56455;SDS011;42354;53.218;6.564;2023-08-21T01:54:03;14.82;;;5.18;;
56455;SDS011;42354;53.218;6.564;2023-08-21T01:56:28;20.63;;;5.80;;
56455;SDS011;42354;53.218;6.564;2023-08-21T01:58:53;20.52;;;5.68;;
56455;SDS011;42354;53.218;6.564;2023-08-21T02:01:19;15.10;;;6.00;;
56455;SDS011;42354;53.218;6.564;2023-08-21T02:03:45;18.45;;;5.80;;
56455;SDS011;42354;53.218;6.564;2023-08-21T02:06:11;18.85;;;6.32;;
56455;SDS011;42354;53.218;6.564;2023-08-21T02:08:37;19.92;;;6.00;;
56455;SDS011;42354;53.218;6.564;2023-08-21T02:11:02;13.80;;;5.82;;
56455;SDS011;42354;53.218;6.564;2023-08-21T02:13:27;16.85;;;5.80;;
56455;SDS011;42354;53.218;6.564;2023-08-21T02:15:53;14.90;;;6.03;;
56455;SDS011;42354;53.218;6.564;2023-08-21T02:18:18;13.00;;;6.18;;
56455;SDS011;42354;53.218;6.564;2023-08-21T02:20:44;15.82;;;5.40;;
56455;SDS011;42354;53.218;6.564;2023-08-21T02:23:09;20.65;;;6.50;;
56455;SDS011;42354;53.218;6.564;2023-08-21T02:25:35;16.13;;;6.28;;
56455;SDS011;42354;53.218;6.564;2023-08-21T02:28:00;16.65;;;6.22;;
56455;SDS011;42354;53.218;6.564;2023-08-21T02:30:27;17.88;;;6.68;;
56455;SDS011;42354;53.218;6.564;2023-08-21T02:32:53;17.75;;;5.80;;
56455;SDS011;42354;53.218;6.564;2023-08-21T02:35:21;26.25;;;6.60;;
56455;SDS011;42354;53.218;6.564;2023-08-21T02:37:47;17.27;;;6.32;;
56455;SDS011;42354;53.218;6.564;2023-08-21T02:40:12;19.35;;;6.57;;
56455;SDS011;42354;53.218;6.564;2023-08-21T02:42:38;19.45;;;6.90;;
56455;SDS011;42354;53.218;6.564;2023-08-21T02:45:06;22.08;;;7.53;;
56455;SDS011;42354;53.218;6.564;2023-08-21T02:47:36;22.00;;;7.72;;
56455;SDS011;42354;53.218;6.564;2023-08-21T02:50:05;17.42;;;7.63;;
56455;SDS011;42354;53.218;6.564;2023-08-21T02:52:32;19.38;;;7.45;;
56455;SDS011;42354;53.218;6.564;2023-08-21T02:54:58;22.58;;;7.93;;
56455;SDS011;42354;53.218;6.564;2023-08-21T02:57:27;20.33;;;7.10;;
56455;SDS011;42354;53.218;6.564;2023-08-21T02:59:53;23.20;;;6.28;;
56455;SDS011;42354;53.218;6.564;2023-08-21T03:02:19;19.13;;;5.40;;
56455;SDS011;42354;53.218;6.564;2023-08-21T03:04:45;17.13;;;5.80;;
56455;SDS011;42354;53.218;6.564;2023-08-21T03:07:10;18.80;;;5.80;;
56455;SDS011;42354;53.218;6.564;2023-08-21T03:09:36;15.27;;;5.22;;
56455;SDS011;42354;53.218;6.564;2023-08-21T03:12:02;16.23;;;5.90;;
56455;SDS011;42354;53.218;6.564;2023-08-21T03:14:28;17.02;;;5.45;;
56455;SDS011;42354;53.218;6.564;2023-08-21T03:16:53;18.15;;;5.35;;
56455;SDS011;42354;53.218;6.564;2023-08-21T03:19:19;16.38;;;5.53;;
56455;SDS011;42354;53.218;6.564;2023-08-21T03:21:44;15.23;;;6.18;;
56455;SDS011;42354;53.218;6.564;2023-08-21T03:24:09;14.63;;;5.35;;
56455;SDS011;42354;53.218;6.564;2023-08-21T03:26:35;17.27;;;5.38;;
56455;SDS011;42354;53.218;6.564;2023-08-21T03:29:00;18.30;;;5.85;;
56455;SDS011;42354;53.218;6.564;2023-08-21T03:31:26;13.13;;;5.30;;
56455;SDS011;42354;53.218;6.564;2023-08-21T03:33:51;17.10;;;5.88;;
56455;SDS011;42354;53.218;6.564;2023-08-21T03:36:17;11.93;;;5.13;;
56455;SDS011;42354;53.218;6.564;2023-08-21T03:38:42;13.85;;;5.25;;
56455;SDS011;42354;53.218;6.564;2023-08-21T03:41:08;16.13;;;5.88;;
56455;SDS011;42354;53.218;6.564;2023-08-21T03:43:33;13.35;;;5.63;;
56455;SDS011;42354;53.218;6.564;2023-08-21T03:45:59;12.88;;;5.78;;
56455;SDS011;42354;53.218;6.564;2023-08-21T03:48:24;20.42;;;5.97;;
56455;SDS011;42354;53.218;6.564;2023-08-21T03:50:49;20.10;;;6.18;;
56455;SDS011;42354;53.218;6.564;2023-08-21T03:53:15;14.38;;;5.40;;
56455;SDS011;42354;53.218;6.564;2023-08-21T03:55:40;10.57;;;4.90;;
56455;SDS011;42354;53.218;6.564;2023-08-21T03:58:06;16.33;;;5.50;;
56455;SDS011;42354;53.218;6.564;2023-08-21T04:00:31;20.17;;;5.70;;
56455;SDS011;42354;53.218;6.564;2023-08-21T04:02:57;14.02;;;6.03;;
56455;SDS011;42354;53.218;6.564;2023-08-21T04:05:23;11.43;;;5.50;;
56455;SDS011;42354;53.218;6.564;2023-08-21T04:07:48;18.77;;;5.75;;
56455;SDS011;42354;53.218;6.564;2023-08-21T04:10:13;21.25;;;6.25;;
56455;SDS011;42354;53.218;6.564;2023-08-21T04:12:39;15.20;;;5.88;;
56455;SDS011;42354;53.218;6.564;2023-08-21T04:15:05;15.68;;;6.25;;
56455;SDS011;42354;53.218;6.564;2023-08-21T04:17:31;19.67;;;6.32;;
56455;SDS011;42354;53.218;6.564;2023-08-21T04:19:56;24.50;;;6.35;;
56455;SDS011;42354;53.218;6.564;2023-08-21T04:22:22;18.08;;;6.32;;
56455;SDS011;42354;53.218;6.564;2023-08-21T04:24:48;22.02;;;6.43;;
56455;SDS011;42354;53.218;6.564;2023-08-21T04:27:13;14.52;;;6.47;;
56455;SDS011;42354;53.218;6.564;2023-08-21T04:29:39;18.55;;;7.40;;
56455;SDS011;42354;53.218;6.564;2023-08-21T04:32:05;17.40;;;6.35;;
56455;SDS011;42354;53.218;6.564;2023-08-21T04:34:34;22.27;;;6.63;;
56455;SDS011;42354;53.218;6.564;2023-08-21T04:36:59;25.52;;;7.97;;
56455;SDS011;42354;53.218;6.564;2023-08-21T04:39:25;22.85;;;7.45;;
56455;SDS011;42354;53.218;6.564;2023-08-21T04:41:50;21.42;;;6.93;;
56455;SDS011;42354;53.218;6.564;2023-08-21T04:44:16;16.83;;;6.20;;
56455;SDS011;42354;53.218;6.564;2023-08-21T04:46:41;21.38;;;6.28;;
56455;SDS011;42354;53.218;6.564;2023-08-21T04:49:07;19.30;;;6.60;;
56455;SDS011;42354;53.218;6.564;2023-08-21T04:51:34;17.25;;;6.53;;
56455;SDS011;42354;53.218;6.564;2023-08-21T04:53:59;16.88;;;6.47;;
56455;SDS011;42354;53.218;6.564;2023-08-21T04:56:27;21.13;;;5.95;;
56455;SDS011;42354;53.218;6.564;2023-08-21T04:58:53;23.48;;;6.32;;
56455;SDS011;42354;53.218;6.564;2023-08-21T05:01:18;15.32;;;6.13;;
56455;SDS011;42354;53.218;6.564;2023-08-21T05:03:43;19.90;;;6.68;;
56455;SDS011;42354;53.218;6.564;2023-08-21T05:06:09;16.30;;;6.68;;
56455;SDS011;42354;53.218;6.564;2023-08-21T05:08:34;25.77;;;6.97;;
56455;SDS011;42354;53.218;6.564;2023-08-21T05:11:00;17.55;;;5.78;;
56455;SDS011;42354;53.218;6.564;2023-08-21T05:13:26;17.50;;;5.60;;
56455;SDS011;42354;53.218;6.564;2023-08-21T05:15:55;17.15;;;5.22;;
56455;SDS011;42354;53.218;6.564;2023-08-21T05:18:22;21.52;;;5.22;;
56455;SDS011;42354;53.218;6.564;2023-08-21T05:20:48;17.23;;;4.45;;
56455;SDS011;42354;53.218;6.564;2023-08-21T05:23:15;16.45;;;5.00;;
56455;SDS011;42354;53.218;6.564;2023-08-21T05:25:40;13.10;;;4.95;;
56455;SDS011;42354;53.218;6.564;2023-08-21T05:28:06;15.90;;;4.32;;
56455;SDS011;42354;53.218;6.564;2023-08-21T05:30:32;9.88;;;4.70;;
56455;SDS011;42354;53.218;6.564;2023-08-21T05:32:58;15.07;;;4.25;;
56455;SDS011;42354;53.218;6.564;2023-08-21T05:35:23;17.25;;;4.18;;
56455;SDS011;42354;53.218;6.564;2023-08-21T05:37:48;14.45;;;4.90;;
56455;SDS011;42354;53.218;6.564;2023-08-21T05:40:14;13.45;;;4.13;;
56455;SDS011;42354;53.218;6.564;2023-08-21T05:42:39;14.52;;;4.20;;
56455;SDS011;42354;53.218;6.564;2023-08-21T05:45:05;13.82;;;4.35;;
56455;SDS011;42354;53.218;6.564;2023-08-21T05:47:31;13.60;;;3.55;;
56455;SDS011;42354;53.218;6.564;2023-08-21T05:49:56;9.02;;;3.17;;
56455;SDS011;42354;53.218;6.564;2023-08-21T05:52:22;11.45;;;3.33;;
56455;SDS011;42354;53.218;6.564;2023-08-21T05:54:47;10.25;;;2.92;;
56455;SDS011;42354;53.218;6.564;2023-08-21T05:57:13;14.35;;;2.97;;
56455;SDS011;42354;53.218;6.564;2023-08-21T05:59:43;9.57;;;3.08;;
56455;SDS011;42354;53.218;6.564;2023-08-21T06:02:09;12.63;;;3.47;;
56455;SDS011;42354;53.218;6.564;2023-08-21T06:04:35;11.10;;;2.65;;
56455;SDS011;42354;53.218;6.564;2023-08-21T06:07:02;12.70;;;2.70;;
56455;SDS011;42354;53.218;6.564;2023-08-21T06:09:29;11.20;;;2.30;;
56455;SDS011;42354;53.218;6.564;2023-08-21T06:11:54;17.50;;;3.05;;
56455;SDS011;42354;53.218;6.564;2023-08-21T06:14:20;12.27;;;2.17;;
56455;SDS011;42354;53.218;6.564;2023-08-21T06:16:53;10.82;;;2.00;;
56455;SDS011;42354;53.218;6.564;2023-08-21T06:19:18;10.80;;;2.72;;
56455;SDS011;42354;53.218;6.564;2023-08-21T06:21:44;8.05;;;2.08;;
56455;SDS011;42354;53.218;6.564;2023-08-21T06:24:09;11.23;;;1.92;;
56455;SDS011;42354;53.218;6.564;2023-08-21T06:26:35;12.52;;;2.08;;
56455;SDS011;42354;53.218;6.564;2023-08-21T06:29:00;9.48;;;1.77;;
56455;SDS011;42354;53.218;6.564;2023-08-21T06:31:26;10.07;;;2.40;;
56455;SDS011;42354;53.218;6.564;2023-08-21T06:33:51;5.82;;;1.30;;
56455;SDS011;42354;53.218;6.564;2023-08-21T06:36:16;9.30;;;1.65;;
56455;SDS011;42354;53.218;6.564;2023-08-21T06:38:42;7.63;;;2.00;;
56455;SDS011;42354;53.218;6.564;2023-08-21T06:41:09;6.97;;;1.77;;
56455;SDS011;42354;53.218;6.564;2023-08-21T06:43:34;9.05;;;1.45;;
56455;SDS011;42354;53.218;6.564;2023-08-21T06:46:00;4.88;;;1.02;;
56455;SDS011;42354;53.218;6.564;2023-08-21T06:48:26;6.97;;;1.33;;
56455;SDS011;42354;53.218;6.564;2023-08-21T06:50:54;10.35;;;1.65;;
56455;SDS011;42354;53.218;6.564;2023-08-21T06:53:20;10.05;;;1.58;;
56455;SDS011;42354;53.218;6.564;2023-08-21T06:55:45;8.05;;;1.65;;
56455;SDS011;42354;53.218;6.564;2023-08-21T06:58:11;7.30;;;1.20;;
56455;SDS011;42354;53.218;6.564;2023-08-21T07:00:36;6.82;;;1.60;;
56455;SDS011;42354;53.218;6.564;2023-08-21T07:03:02;5.35;;;1.25;;
56455;SDS011;42354;53.218;6.564;2023-08-21T07:05:28;6.53;;;1.50;;
56455;SDS011;42354;53.218;6.564;2023-08-21T07:07:54;2.22;;;0.88;;
56455;SDS011;42354;53.218;6.564;2023-08-21T07:10:20;5.80;;;1.23;;
56455;SDS011;42354;53.218;6.564;2023-08-21T07:12:45;7.03;;;1.20;;
56455;SDS011;42354;53.218;6.564;2023-08-21T07:15:11;5.50;;;1.10;;
56455;SDS011;42354;53.218;6.564;2023-08-21T07:17:36;3.33;;;0.80;;
56455;SDS011;42354;53.218;6.564;2023-08-21T07:20:02;4.30;;;0.95;;
56455;SDS011;42354;53.218;6.564;2023-08-21T07:22:29;5.07;;;1.05;;
56455;SDS011;42354;53.218;6.564;2023-08-21T07:24:54;8.52;;;0.95;;
56455;SDS011;42354;53.218;6.564;2023-08-21T07:27:20;3.65;;;1.15;;
56455;SDS011;42354;53.218;6.564;2023-08-21T07:29:45;7.07;;;1.00;;
56455;SDS011;42354;53.218;6.564;2023-08-21T07:32:11;6.43;;;1.20;;
56455;SDS011;42354;53.218;6.564;2023-08-21T07:34:36;7.28;;;1.13;;
56455;SDS011;42354;53.218;6.564;2023-08-21T07:37:02;2.15;;;0.77;;
56455;SDS011;42354;53.218;6.564;2023-08-21T07:39:28;4.50;;;0.80;;
56455;SDS011;42354;53.218;6.564;2023-08-21T07:41:56;2.90;;;1.00;;
56455;SDS011;42354;53.218;6.564;2023-08-21T07:44:21;2.35;;;0.88;;
56455;SDS011;42354;53.218;6.564;2023-08-21T07:46:47;5.65;;;0.90;;
56455;SDS011;42354;53.218;6.564;2023-08-21T07:49:12;3.13;;;0.70;;
56455;SDS011;42354;53.218;6.564;2023-08-21T07:51:37;2.40;;;0.68;;
56455;SDS011;42354;53.218;6.564;2023-08-21T07:54:03;3.92;;;1.00;;
56455;SDS011;42354;53.218;6.564;2023-08-21T07:56:28;4.63;;;0.90;;
56455;SDS011;42354;53.218;6.564;2023-08-21T07:58:53;4.32;;;0.90;;
56455;SDS011;42354;53.218;6.564;2023-08-21T08:01:19;4.90;;;0.90;;
56455;SDS011;42354;53.218;6.564;2023-08-21T08:03:46;4.30;;;0.80;;
56455;SDS011;42354;53.218;6.564;2023-08-21T08:06:11;5.15;;;1.42;;
56455;SDS011;42354;53.218;6.564;2023-08-21T08:08:36;4.20;;;1.05;;
56455;SDS011;42354;53.218;6.564;2023-08-21T08:11:02;2.22;;;0.80;;
56455;SDS011;42354;53.218;6.564;2023-08-21T08:13:29;5.18;;;0.88;;
56455;SDS011;42354;53.218;6.564;2023-08-21T08:15:54;2.78;;;0.90;;
56455;SDS011;42354;53.218;6.564;2023-08-21T08:18:20;2.22;;;0.68;;
56455;SDS011;42354;53.218;6.564;2023-08-21T08:20:45;6.65;;;1.00;;
56455;SDS011;42354;53.218;6.564;2023-08-21T08:23:11;2.33;;;0.70;;
56455;SDS011;42354;53.218;6.564;2023-08-21T08:25:36;5.03;;;1.00;;
56455;SDS011;42354;53.218;6.564;2023-08-21T08:28:02;3.58;;;1.02;;
56455;SDS011;42354;53.218;6.564;2023-08-21T08:30:30;3.13;;;0.80;;
56455;SDS011;42354;53.218;6.564;2023-08-21T08:32:56;4.32;;;0.80;;
56455;SDS011;42354;53.218;6.564;2023-08-21T08:35:21;3.25;;;0.93;;
56455;SDS011;42354;53.218;6.564;2023-08-21T08:37:47;2.20;;;0.82;;
56455;SDS011;42354;53.218;6.564;2023-08-21T08:40:12;3.40;;;0.90;;
56455;SDS011;42354;53.218;6.564;2023-08-21T08:42:38;6.05;;;0.85;;
56455;SDS011;42354;53.218;6.564;2023-08-21T08:45:04;2.95;;;0.90;;
56455;SDS011;42354;53.218;6.564;2023-08-21T08:47:31;5.10;;;1.42;;
56455;SDS011;42354;53.218;6.564;2023-08-21T08:50:02;5.25;;;1.20;;
56455;SDS011;42354;53.218;6.564;2023-08-21T08:52:31;4.88;;;0.90;;
56455;SDS011;42354;53.218;6.564;2023-08-21T08:55:00;6.25;;;0.90;;
56455;SDS011;42354;53.218;6.564;2023-08-21T08:57:27;5.22;;;1.13;;
56455;SDS011;42354;53.218;6.564;2023-08-21T08:59:52;3.22;;;0.88;;
56455;SDS011;42354;53.218;6.564;2023-08-21T09:02:18;4.80;;;0.73;;
56455;SDS011;42354;53.218;6.564;2023-08-21T09:04:43;2.47;;;0.80;;
56455;SDS011;42354;53.218;6.564;2023-08-21T09:07:09;5.93;;;0.98;;
56455;SDS011;42354;53.218;6.564;2023-08-21T09:09:39;4.35;;;1.00;;
56455;SDS011;42354;53.218;6.564;2023-08-21T09:12:11;3.88;;;0.90;;
56455;SDS011;42354;53.218;6.564;2023-08-21T09:17:04;6.68;;;1.10;;
56455;SDS011;42354;53.218;6.564;2023-08-21T09:19:30;4.43;;;0.90;;
56455;SDS011;42354;53.218;6.564;2023-08-21T09:21:55;1.38;;;0.80;;
56455;SDS011;42354;53.218;6.564;2023-08-21T09:24:21;4.50;;;0.90;;
56455;SDS011;42354;53.218;6.564;2023-08-21T09:26:46;4.13;;;0.90;;
56455;SDS011;42354;53.218;6.564;2023-08-21T09:29:12;3.25;;;0.85;;
56455;SDS011;42354;53.218;6.564;2023-08-21T09:31:37;4.70;;;1.17;;
56455;SDS011;42354;53.218;6.564;2023-08-21T09:34:03;2.45;;;0.77;;
56455;SDS011;42354;53.218;6.564;2023-08-21T09:36:32;3.65;;;0.80;;
56455;SDS011;42354;53.218;6.564;2023-08-21T09:38:58;3.60;;;0.80;;
56455;SDS011;42354;53.218;6.564;2023-08-21T09:41:26;4.07;;;0.80;;
56455;SDS011;42354;53.218;6.564;2023-08-21T09:43:52;2.33;;;0.60;;
56455;SDS011;42354;53.218;6.564;2023-08-21T09:46:24;4.80;;;1.08;;
56455;SDS011;42354;53.218;6.564;2023-08-21T09:48:54;7.53;;;1.65;;
56455;SDS011;42354;53.218;6.564;2023-08-21T09:51:20;2.28;;;0.70;;
56455;SDS011;42354;53.218;6.564;2023-08-21T09:53:47;3.45;;;0.93;;
56455;SDS011;42354;53.218;6.564;2023-08-21T09:56:14;5.43;;;0.70;;
56455;SDS011;42354;53.218;6.564;2023-08-21T09:58:39;2.63;;;0.90;;
56455;SDS011;42354;53.218;6.564;2023-08-21T10:01:05;4.78;;;0.80;;
56455;SDS011;42354;53.218;6.564;2023-08-21T10:03:42;4.97;;;1.20;;
56455;SDS011;42354;53.218;6.564;2023-08-21T10:06:10;3.63;;;1.00;;
56455;SDS011;42354;53.218;6.564;2023-08-21T10:08:37;3.05;;;0.80;;
56455;SDS011;42354;53.218;6.564;2023-08-21T10:11:06;3.10;;;0.65;;
56455;SDS011;42354;53.218;6.564;2023-08-21T10:13:32;2.95;;;0.73;;
56455;SDS011;42354;53.218;6.564;2023-08-21T10:15:59;2.95;;;0.85;;
56455;SDS011;42354;53.218;6.564;2023-08-21T10:18:30;2.95;;;1.02;;
56455;SDS011;42354;53.218;6.564;2023-08-21T10:23:42;3.67;;;0.90;;
56455;SDS011;42354;53.218;6.564;2023-08-21T10:26:11;3.53;;;1.10;;
56455;SDS011;42354;53.218;6.564;2023-08-21T10:28:43;3.67;;;0.90;;
56455;SDS011;42354;53.218;6.564;2023-08-21T10:34:00;4.65;;;1.00;;
56455;SDS011;42354;53.218;6.564;2023-08-21T10:39:27;2.97;;;0.82;;
56455;SDS011;42354;53.218;6.564;2023-08-21T10:44:36;3.60;;;1.05;;
56455;SDS011;42354;53.218;6.564;2023-08-21T10:47:14;2.47;;;0.95;;
56455;SDS011;42354;53.218;6.564;2023-08-21T10:49:53;4.53;;;0.85;;
56455;SDS011;42354;53.218;6.564;2023-08-21T10:52:21;3.72;;;1.00;;
56455;SDS011;42354;53.218;6.564;2023-08-21T10:54:51;4.30;;;1.05;;
56455;SDS011;42354;53.218;6.564;2023-08-21T10:57:19;4.00;;;0.93;;
56455;SDS011;42354;53.218;6.564;2023-08-21T10:59:52;4.45;;;1.35;;
56455;SDS011;42354;53.218;6.564;2023-08-21T11:02:37;3.25;;;0.77;;
56455;SDS011;42354;53.218;6.564;2023-08-21T11:05:04;2.85;;;0.98;;
56455;SDS011;42354;53.218;6.564;2023-08-21T11:07:42;6.95;;;0.98;;
56455;SDS011;42354;53.218;6.564;2023-08-21T11:10:15;1.02;;;0.77;;
56455;SDS011;42354;53.218;6.564;2023-08-21T11:13:06;5.65;;;1.00;;
56455;SDS011;42354;53.218;6.564;2023-08-21T11:15:34;5.00;;;1.00;;
56455;SDS011;42354;53.218;6.564;2023-08-21T11:18:00;5.80;;;0.90;;
56455;SDS011;42354;53.218;6.564;2023-08-21T11:20:34;3.42;;;0.80;;
56455;SDS011;42354;53.218;6.564;2023-08-21T11:23:04;2.92;;;1.00;;
56455;SDS011;42354;53.218;6.564;2023-08-21T11:25:34;4.15;;;1.27;;
56455;SDS011;42354;53.218;6.564;2023-08-21T11:28:02;5.90;;;1.30;;
56455;SDS011;42354;53.218;6.564;2023-08-21T11:30:28;3.63;;;1.00;;
56455;SDS011;42354;53.218;6.564;2023-08-21T11:33:08;4.18;;;1.00;;
56455;SDS011;42354;53.218;6.564;2023-08-21T11:35:37;1.77;;;0.60;;
56455;SDS011;42354;53.218;6.564;2023-08-21T11:38:04;3.40;;;1.10;;
56455;SDS011;42354;53.218;6.564;2023-08-21T11:40:29;4.43;;;1.10;;
56455;SDS011;42354;53.218;6.564;2023-08-21T11:43:01;3.42;;;1.42;;
56455;SDS011;42354;53.218;6.564;2023-08-21T11:45:27;3.80;;;1.42;;
56455;SDS011;42354;53.218;6.564;2023-08-21T11:47:55;4.20;;;1.10;;
56455;SDS011;42354;53.218;6.564;2023-08-21T11:50:21;4.63;;;1.30;;
56455;SDS011;42354;53.218;6.564;2023-08-21T11:52:47;5.22;;;1.15;;
56455;SDS011;42354;53.218;6.564;2023-08-21T11:55:16;2.55;;;0.93;;
56455;SDS011;42354;53.218;6.564;2023-08-21T11:57:48;5.68;;;1.10;;
56455;SDS011;42354;53.218;6.564;2023-08-21T12:00:16;4.47;;;1.17;;
56455;SDS011;42354;53.218;6.564;2023-08-21T12:02:53;6.07;;;1.60;;
56455;SDS011;42354;53.218;6.564;2023-08-21T12:05:23;6.72;;;1.20;;
56455;SDS011;42354;53.218;6.564;2023-08-21T12:07:48;6.18;;;1.33;;
56455;SDS011;42354;53.218;6.564;2023-08-21T12:10:14;5.30;;;1.58;;
56455;SDS011;42354;53.218;6.564;2023-08-21T12:12:39;4.60;;;1.10;;
56455;SDS011;42354;53.218;6.564;2023-08-21T12:15:05;4.28;;;1.00;;
56455;SDS011;42354;53.218;6.564;2023-08-21T12:17:31;6.05;;;1.42;;
56455;SDS011;42354;53.218;6.564;2023-08-21T12:19:56;7.68;;;1.75;;
56455;SDS011;42354;53.218;6.564;2023-08-21T12:22:22;6.80;;;1.20;;
56455;SDS011;42354;53.218;6.564;2023-08-21T12:24:47;12.30;;;1.33;;
56455;SDS011;42354;53.218;6.564;2023-08-21T12:27:12;5.00;;;1.50;;
56455;SDS011;42354;53.218;6.564;2023-08-21T12:29:38;7.22;;;2.28;;
56455;SDS011;42354;53.218;6.564;2023-08-21T12:32:03;5.85;;;1.80;;
56455;SDS011;42354;53.218;6.564;2023-08-21T12:34:29;6.80;;;1.40;;
56455;SDS011;42354;53.218;6.564;2023-08-21T12:36:54;2.92;;;1.20;;
56455;SDS011;42354;53.218;6.564;2023-08-21T12:39:20;3.75;;;1.70;;
56455;SDS011;42354;53.218;6.564;2023-08-21T12:41:46;4.10;;;1.48;;
56455;SDS011;42354;53.218;6.564;2023-08-21T12:44:13;5.57;;;1.85;;
56455;SDS011;42354;53.218;6.564;2023-08-21T12:46:39;4.40;;;1.10;;
56455;SDS011;42354;53.218;6.564;2023-08-21T12:49:04;7.38;;;1.40;;
56455;SDS011;42354;53.218;6.564;2023-08-21T12:51:30;4.75;;;1.30;;
56455;SDS011;42354;53.218;6.564;2023-08-21T12:53:55;5.97;;;1.38;;
56455;SDS011;42354;53.218;6.564;2023-08-21T12:56:21;3.30;;;1.25;;
56455;SDS011;42354;53.218;6.564;2023-08-21T12:58:47;5.78;;;1.30;;
56455;SDS011;42354;53.218;6.564;2023-08-21T13:01:12;4.95;;;1.45;;
56455;SDS011;42354;53.218;6.564;2023-08-21T13:03:38;3.78;;;1.08;;
56455;SDS011;42354;53.218;6.564;2023-08-21T13:06:04;4.88;;;1.02;;
56455;SDS011;42354;53.218;6.564;2023-08-21T13:08:29;7.15;;;1.00;;
56455;SDS011;42354;53.218;6.564;2023-08-21T13:10:55;7.00;;;1.05;;
56455;SDS011;42354;53.218;6.564;2023-08-21T13:13:20;3.55;;;1.20;;
56455;SDS011;42354;53.218;6.564;2023-08-21T13:15:46;3.58;;;1.17;;
56455;SDS011;42354;53.218;6.564;2023-08-21T13:18:11;4.97;;;0.90;;
56455;SDS011;42354;53.218;6.564;2023-08-21T13:20:39;5.18;;;1.27;;
56455;SDS011;42354;53.218;6.564;2023-08-21T13:23:05;4.70;;;0.80;;
56455;SDS011;42354;53.218;6.564;2023-08-21T13:25:31;3.25;;;0.90;;
56455;SDS011;42354;53.218;6.564;2023-08-21T13:27:56;3.03;;;1.00;;
56455;SDS011;42354;53.218;6.564;2023-08-21T13:30:21;3.38;;;1.10;;
56455;SDS011;42354;53.218;6.564;2023-08-21T13:32:49;4.60;;;0.90;;
56455;SDS011;42354;53.218;6.564;2023-08-21T13:35:17;4.20;;;1.00;;
56455;SDS011;42354;53.218;6.564;2023-08-21T13:37:44;4.57;;;1.25;;
56455;SDS011;42354;53.218;6.564;2023-08-21T13:40:10;4.43;;;0.80;;
56455;SDS011;42354;53.218;6.564;2023-08-21T13:42:38;3.80;;;1.10;;
56455;SDS011;42354;53.218;6.564;2023-08-21T13:45:08;4.90;;;0.80;;
56455;SDS011;42354;53.218;6.564;2023-08-21T13:47:40;3.20;;;0.88;;
56455;SDS011;42354;53.218;6.564;2023-08-21T13:50:07;2.42;;;0.82;;
56455;SDS011;42354;53.218;6.564;2023-08-21T13:52:34;3.25;;;0.70;;
56455;SDS011;42354;53.218;6.564;2023-08-21T13:55:00;3.35;;;0.93;;
56455;SDS011;42354;53.218;6.564;2023-08-21T13:57:26;1.42;;;0.60;;
56455;SDS011;42354;53.218;6.564;2023-08-21T13:59:51;3.35;;;0.90;;
56455;SDS011;42354;53.218;6.564;2023-08-21T14:02:17;4.07;;;0.88;;
56455;SDS011;42354;53.218;6.564;2023-08-21T14:04:47;4.00;;;0.88;;
56455;SDS011;42354;53.218;6.564;2023-08-21T14:07:13;2.63;;;0.70;;
56455;SDS011;42354;53.218;6.564;2023-08-21T14:09:38;4.80;;;0.80;;
56455;SDS011;42354;53.218;6.564;2023-08-21T14:12:07;3.20;;;0.70;;
56455;SDS011;42354;53.218;6.564;2023-08-21T14:14:35;4.55;;;0.70;;
56455;SDS011;42354;53.218;6.564;2023-08-21T14:17:01;5.65;;;0.80;;
56455;SDS011;42354;53.218;6.564;2023-08-21T14:19:28;2.05;;;0.70;;
56455;SDS011;42354;53.218;6.564;2023-08-21T14:21:57;6.50;;;0.70;;
56455;SDS011;42354;53.218;6.564;2023-08-21T14:24:26;6.22;;;0.82;;
56455;SDS011;42354;53.218;6.564;2023-08-21T14:26:52;3.28;;;0.75;;
56455;SDS011;42354;53.218;6.564;2023-08-21T14:29:17;2.78;;;0.70;;
56455;SDS011;42354;53.218;6.564;2023-08-21T14:31:43;2.47;;;0.70;;
56455;SDS011;42354;53.218;6.564;2023-08-21T14:34:10;3.58;;;0.70;;
56455;SDS011;42354;53.218;6.564;2023-08-21T14:36:35;3.75;;;0.73;;
56455;SDS011;42354;53.218;6.564;2023-08-21T14:39:00;3.55;;;0.60;;
56455;SDS011;42354;53.218;6.564;2023-08-21T14:41:26;2.95;;;0.70;;
56455;SDS011;42354;53.218;6.564;2023-08-21T14:43:51;7.85;;;1.30;;
56455;SDS011;42354;53.218;6.564;2023-08-21T14:46:17;2.85;;;0.70;;
56455;SDS011;42354;53.218;6.564;2023-08-21T14:48:43;2.30;;;0.57;;
56455;SDS011;42354;53.218;6.564;2023-08-21T14:51:08;4.60;;;0.60;;
56455;SDS011;42354;53.218;6.564;2023-08-21T14:53:34;3.13;;;0.75;;
56455;SDS011;42354;53.218;6.564;2023-08-21T14:55:59;1.88;;;0.60;;
56455;SDS011;42354;53.218;6.564;2023-08-21T14:58:24;2.47;;;0.63;;
56455;SDS011;42354;53.218;6.564;2023-08-21T15:00:53;2.47;;;0.50;;